sensor_id;sensor_type;location;lat;lon;timestamp;P1;durP1;ratioP1;P2;durP2;ratioP2
18435;SDS011;9346;52.006;4.720;2022-08-05T00:00:02;11.40;;;5.83;;
18435;SDS011;9346;52.006;4.720;2022-08-05T00:02:30;7.43;;;3.57;;
18435;SDS011;9346;52.006;4.720;2022-08-05T00:04:57;6.20;;;4.30;;
18435;SDS011;9346;52.006;4.720;2022-08-05T00:07:24;8.07;;;4.80;;
18435;SDS011;9346;52.006;4.720;2022-08-05T00:09:51;6.50;;;3.73;;
18435;SDS011;9346;52.006;4.720;2022-08-05T00:12:20;7.03;;;3.90;;
18435;SDS011;9346;52.006;4.720;2022-08-05T00:14:48;5.83;;;3.90;;
18435;SDS011;9346;52.006;4.720;2022-08-05T00:17:15;3.23;;;2.93;;
18435;SDS011;9346;52.006;4.720;2022-08-05T00:22:26;4.73;;;2.90;;
18435;SDS011;9346;52.006;4.720;2022-08-05T00:24:54;4.03;;;2.83;;
18435;SDS011;9346;52.006;4.720;2022-08-05T00:27:23;5.77;;;3.10;;
18435;SDS011;9346;52.006;4.720;2022-08-05T00:29:50;3.10;;;2.33;;
18435;SDS011;9346;52.006;4.720;2022-08-05T00:32:18;5.97;;;2.37;;
18435;SDS011;9346;52.006;4.720;2022-08-05T00:34:45;3.57;;;2.53;;
18435;SDS011;9346;52.006;4.720;2022-08-05T00:37:13;4.63;;;2.83;;
18435;SDS011;9346;52.006;4.720;2022-08-05T00:39:40;4.53;;;2.30;;
18435;SDS011;9346;52.006;4.720;2022-08-05T00:42:08;4.23;;;2.23;;
18435;SDS011;9346;52.006;4.720;2022-08-05T00:44:37;6.07;;;3.93;;
18435;SDS011;9346;52.006;4.720;2022-08-05T00:47:04;7.73;;;4.53;;
18435;SDS011;9346;52.006;4.720;2022-08-05T00:49:31;5.13;;;3.33;;
18435;SDS011;9346;52.006;4.720;2022-08-05T00:51:58;5.00;;;4.00;;
18435;SDS011;9346;52.006;4.720;2022-08-05T00:54:26;6.57;;;3.80;;
18435;SDS011;9346;52.006;4.720;2022-08-05T00:56:53;4.97;;;3.30;;
18435;SDS011;9346;52.006;4.720;2022-08-05T00:59:20;4.07;;;3.00;;
18435;SDS011;9346;52.006;4.720;2022-08-05T01:01:48;6.13;;;3.50;;
18435;SDS011;9346;52.006;4.720;2022-08-05T01:04:15;3.63;;;2.77;;
18435;SDS011;9346;52.006;4.720;2022-08-05T01:06:42;5.57;;;2.97;;
18435;SDS011;9346;52.006;4.720;2022-08-05T01:09:09;8.20;;;4.83;;
18435;SDS011;9346;52.006;4.720;2022-08-05T01:11:36;7.50;;;3.47;;
18435;SDS011;9346;52.006;4.720;2022-08-05T01:14:10;3.97;;;3.13;;
18435;SDS011;9346;52.006;4.720;2022-08-05T01:16:44;4.57;;;3.63;;
18435;SDS011;9346;52.006;4.720;2022-08-05T01:19:24;5.17;;;2.63;;
18435;SDS011;9346;52.006;4.720;2022-08-05T01:22:16;4.53;;;2.57;;
18435;SDS011;9346;52.006;4.720;2022-08-05T01:24:58;4.40;;;2.57;;
18435;SDS011;9346;52.006;4.720;2022-08-05T01:30:35;8.03;;;4.23;;
18435;SDS011;9346;52.006;4.720;2022-08-05T01:33:05;8.13;;;4.03;;
18435;SDS011;9346;52.006;4.720;2022-08-05T01:35:36;5.97;;;3.57;;
18435;SDS011;9346;52.006;4.720;2022-08-05T01:38:09;4.60;;;3.37;;
18435;SDS011;9346;52.006;4.720;2022-08-05T01:40:39;5.30;;;3.43;;
18435;SDS011;9346;52.006;4.720;2022-08-05T01:43:08;5.50;;;3.43;;
18435;SDS011;9346;52.006;4.720;2022-08-05T01:45:36;6.97;;;4.00;;
18435;SDS011;9346;52.006;4.720;2022-08-05T01:48:05;4.50;;;3.37;;
18435;SDS011;9346;52.006;4.720;2022-08-05T01:50:35;3.53;;;2.90;;
18435;SDS011;9346;52.006;4.720;2022-08-05T01:53:05;5.67;;;4.00;;
18435;SDS011;9346;52.006;4.720;2022-08-05T01:55:35;6.10;;;3.70;;
18435;SDS011;9346;52.006;4.720;2022-08-05T01:58:04;5.97;;;4.30;;
18435;SDS011;9346;52.006;4.720;2022-08-05T02:00:34;7.60;;;4.30;;
18435;SDS011;9346;52.006;4.720;2022-08-05T02:03:05;7.57;;;4.10;;
18435;SDS011;9346;52.006;4.720;2022-08-05T02:05:35;5.37;;;3.23;;
18435;SDS011;9346;52.006;4.720;2022-08-05T02:08:03;3.23;;;2.40;;
18435;SDS011;9346;52.006;4.720;2022-08-05T02:10:32;3.83;;;3.23;;
18435;SDS011;9346;52.006;4.720;2022-08-05T02:13:04;4.23;;;2.90;;
18435;SDS011;9346;52.006;4.720;2022-08-05T02:15:41;5.37;;;3.03;;
18435;SDS011;9346;52.006;4.720;2022-08-05T02:18:13;3.63;;;2.93;;
18435;SDS011;9346;52.006;4.720;2022-08-05T02:20:47;8.27;;;3.70;;
18435;SDS011;9346;52.006;4.720;2022-08-05T02:23:19;4.33;;;3.20;;
18435;SDS011;9346;52.006;4.720;2022-08-05T02:25:56;3.83;;;3.40;;
18435;SDS011;9346;52.006;4.720;2022-08-05T02:28:28;4.57;;;3.03;;
18435;SDS011;9346;52.006;4.720;2022-08-05T02:31:05;3.70;;;2.50;;
18435;SDS011;9346;52.006;4.720;2022-08-05T02:33:34;5.13;;;3.03;;
18435;SDS011;9346;52.006;4.720;2022-08-05T02:36:07;6.13;;;2.83;;
18435;SDS011;9346;52.006;4.720;2022-08-05T02:38:36;6.77;;;3.93;;
18435;SDS011;9346;52.006;4.720;2022-08-05T02:41:07;7.90;;;2.93;;
18435;SDS011;9346;52.006;4.720;2022-08-05T02:43:35;8.47;;;3.37;;
18435;SDS011;9346;52.006;4.720;2022-08-05T02:46:05;3.63;;;2.40;;
18435;SDS011;9346;52.006;4.720;2022-08-05T02:48:32;4.17;;;2.50;;
18435;SDS011;9346;52.006;4.720;2022-08-05T02:51:00;6.30;;;2.90;;
18435;SDS011;9346;52.006;4.720;2022-08-05T02:53:29;3.43;;;2.70;;
18435;SDS011;9346;52.006;4.720;2022-08-05T02:55:59;4.90;;;2.87;;
18435;SDS011;9346;52.006;4.720;2022-08-05T02:58:28;3.53;;;2.30;;
18435;SDS011;9346;52.006;4.720;2022-08-05T03:00:58;5.83;;;2.77;;
18435;SDS011;9346;52.006;4.720;2022-08-05T03:03:29;4.37;;;2.80;;
18435;SDS011;9346;52.006;4.720;2022-08-05T03:05:59;5.17;;;2.77;;
18435;SDS011;9346;52.006;4.720;2022-08-05T03:08:28;3.07;;;2.10;;
18435;SDS011;9346;52.006;4.720;2022-08-05T03:10:56;4.33;;;2.60;;
18435;SDS011;9346;52.006;4.720;2022-08-05T03:13:23;7.57;;;2.70;;
18435;SDS011;9346;52.006;4.720;2022-08-05T03:15:50;4.03;;;2.40;;
18435;SDS011;9346;52.006;4.720;2022-08-05T03:18:17;3.30;;;2.53;;
18435;SDS011;9346;52.006;4.720;2022-08-05T03:20:46;5.03;;;2.50;;
18435;SDS011;9346;52.006;4.720;2022-08-05T03:23:13;3.63;;;1.97;;
18435;SDS011;9346;52.006;4.720;2022-08-05T03:25:41;3.03;;;2.50;;
18435;SDS011;9346;52.006;4.720;2022-08-05T03:28:08;3.73;;;2.40;;
18435;SDS011;9346;52.006;4.720;2022-08-05T03:30:36;2.43;;;2.10;;
18435;SDS011;9346;52.006;4.720;2022-08-05T03:33:04;3.20;;;2.20;;
18435;SDS011;9346;52.006;4.720;2022-08-05T03:35:32;4.03;;;2.33;;
18435;SDS011;9346;52.006;4.720;2022-08-05T03:38:02;3.07;;;2.43;;
18435;SDS011;9346;52.006;4.720;2022-08-05T03:40:29;4.20;;;2.20;;
18435;SDS011;9346;52.006;4.720;2022-08-05T03:42:56;4.40;;;1.97;;
18435;SDS011;9346;52.006;4.720;2022-08-05T03:45:23;3.60;;;1.97;;
18435;SDS011;9346;52.006;4.720;2022-08-05T03:47:50;4.43;;;2.30;;
18435;SDS011;9346;52.006;4.720;2022-08-05T03:50:17;4.50;;;2.73;;
18435;SDS011;9346;52.006;4.720;2022-08-05T03:52:47;2.17;;;1.80;;
18435;SDS011;9346;52.006;4.720;2022-08-05T03:55:23;2.47;;;2.10;;
18435;SDS011;9346;52.006;4.720;2022-08-05T03:57:52;5.57;;;2.00;;
18435;SDS011;9346;52.006;4.720;2022-08-05T04:00:21;2.07;;;1.63;;
18435;SDS011;9346;52.006;4.720;2022-08-05T04:02:55;2.57;;;1.30;;
18435;SDS011;9346;52.006;4.720;2022-08-05T04:05:26;1.87;;;1.67;;
18435;SDS011;9346;52.006;4.720;2022-08-05T04:07:56;2.53;;;2.00;;
18435;SDS011;9346;52.006;4.720;2022-08-05T04:10:28;2.40;;;1.43;;
18435;SDS011;9346;52.006;4.720;2022-08-05T04:12:55;3.20;;;1.80;;
18435;SDS011;9346;52.006;4.720;2022-08-05T04:15:22;4.37;;;1.60;;
18435;SDS011;9346;52.006;4.720;2022-08-05T04:17:50;5.27;;;2.07;;
18435;SDS011;9346;52.006;4.720;2022-08-05T04:20:17;3.67;;;1.80;;
18435;SDS011;9346;52.006;4.720;2022-08-05T04:22:44;2.63;;;1.90;;
18435;SDS011;9346;52.006;4.720;2022-08-05T04:25:12;2.47;;;1.80;;
18435;SDS011;9346;52.006;4.720;2022-08-05T04:27:41;2.47;;;1.80;;
18435;SDS011;9346;52.006;4.720;2022-08-05T04:30:08;3.83;;;1.77;;
18435;SDS011;9346;52.006;4.720;2022-08-05T04:32:36;5.10;;;2.77;;
18435;SDS011;9346;52.006;4.720;2022-08-05T04:35:11;5.00;;;2.90;;
18435;SDS011;9346;52.006;4.720;2022-08-05T04:37:40;1.87;;;1.67;;
18435;SDS011;9346;52.006;4.720;2022-08-05T04:40:08;3.73;;;2.57;;
18435;SDS011;9346;52.006;4.720;2022-08-05T04:42:36;4.27;;;2.10;;
18435;SDS011;9346;52.006;4.720;2022-08-05T04:45:06;4.30;;;2.80;;
18435;SDS011;9346;52.006;4.720;2022-08-05T04:47:35;3.43;;;2.70;;
18435;SDS011;9346;52.006;4.720;2022-08-05T04:50:03;6.00;;;2.97;;
18435;SDS011;9346;52.006;4.720;2022-08-05T04:52:30;5.80;;;3.10;;
18435;SDS011;9346;52.006;4.720;2022-08-05T04:54:59;5.83;;;2.90;;
18435;SDS011;9346;52.006;4.720;2022-08-05T04:57:26;6.80;;;2.67;;
18435;SDS011;9346;52.006;4.720;2022-08-05T04:59:53;3.83;;;2.27;;
18435;SDS011;9346;52.006;4.720;2022-08-05T05:02:22;4.73;;;2.20;;
18435;SDS011;9346;52.006;4.720;2022-08-05T05:04:49;4.20;;;2.87;;
18435;SDS011;9346;52.006;4.720;2022-08-05T05:07:16;5.80;;;2.50;;
18435;SDS011;9346;52.006;4.720;2022-08-05T05:09:43;4.40;;;2.50;;
18435;SDS011;9346;52.006;4.720;2022-08-05T05:12:10;4.73;;;2.70;;
18435;SDS011;9346;52.006;4.720;2022-08-05T05:14:37;5.33;;;2.53;;
18435;SDS011;9346;52.006;4.720;2022-08-05T05:17:05;3.63;;;2.70;;
18435;SDS011;9346;52.006;4.720;2022-08-05T05:19:34;3.50;;;2.40;;
18435;SDS011;9346;52.006;4.720;2022-08-05T05:22:02;3.63;;;2.03;;
18435;SDS011;9346;52.006;4.720;2022-08-05T05:24:29;2.30;;;2.10;;
18435;SDS011;9346;52.006;4.720;2022-08-05T05:26:56;3.20;;;1.87;;
18435;SDS011;9346;52.006;4.720;2022-08-05T05:29:23;4.53;;;2.60;;
18435;SDS011;9346;52.006;4.720;2022-08-05T05:31:50;3.03;;;2.63;;
18435;SDS011;9346;52.006;4.720;2022-08-05T05:34:17;3.87;;;1.80;;
18435;SDS011;9346;52.006;4.720;2022-08-05T05:36:46;3.50;;;1.97;;
18435;SDS011;9346;52.006;4.720;2022-08-05T05:39:13;3.13;;;1.60;;
18435;SDS011;9346;52.006;4.720;2022-08-05T05:41:40;3.17;;;1.73;;
18435;SDS011;9346;52.006;4.720;2022-08-05T05:44:06;3.87;;;1.40;;
18435;SDS011;9346;52.006;4.720;2022-08-05T05:46:34;2.90;;;1.63;;
18435;SDS011;9346;52.006;4.720;2022-08-05T05:49:01;2.43;;;1.60;;
18435;SDS011;9346;52.006;4.720;2022-08-05T05:51:30;2.93;;;1.63;;
18435;SDS011;9346;52.006;4.720;2022-08-05T05:53:59;1.67;;;1.53;;
18435;SDS011;9346;52.006;4.720;2022-08-05T05:56:26;4.50;;;1.60;;
18435;SDS011;9346;52.006;4.720;2022-08-05T05:58:54;3.03;;;1.90;;
18435;SDS011;9346;52.006;4.720;2022-08-05T06:01:21;3.70;;;1.60;;
18435;SDS011;9346;52.006;4.720;2022-08-05T06:03:48;2.20;;;1.53;;
18435;SDS011;9346;52.006;4.720;2022-08-05T06:06:15;1.90;;;1.37;;
18435;SDS011;9346;52.006;4.720;2022-08-05T06:08:41;1.60;;;1.27;;
18435;SDS011;9346;52.006;4.720;2022-08-05T06:11:10;2.10;;;1.27;;
18435;SDS011;9346;52.006;4.720;2022-08-05T06:13:38;1.73;;;1.07;;
18435;SDS011;9346;52.006;4.720;2022-08-05T06:16:05;1.67;;;1.27;;
18435;SDS011;9346;52.006;4.720;2022-08-05T06:18:32;3.63;;;1.50;;
18435;SDS011;9346;52.006;4.720;2022-08-05T06:21:01;3.10;;;1.40;;
18435;SDS011;9346;52.006;4.720;2022-08-05T06:23:28;2.80;;;1.40;;
18435;SDS011;9346;52.006;4.720;2022-08-05T06:25:56;1.37;;;1.20;;
18435;SDS011;9346;52.006;4.720;2022-08-05T06:28:24;2.83;;;1.00;;
18435;SDS011;9346;52.006;4.720;2022-08-05T06:30:52;1.37;;;1.27;;
18435;SDS011;9346;52.006;4.720;2022-08-05T06:33:19;1.20;;;1.10;;
18435;SDS011;9346;52.006;4.720;2022-08-05T06:35:46;12.97;;;1.50;;
18435;SDS011;9346;52.006;4.720;2022-08-05T06:38:13;1.47;;;0.97;;
18435;SDS011;9346;52.006;4.720;2022-08-05T06:40:41;2.43;;;1.00;;
18435;SDS011;9346;52.006;4.720;2022-08-05T06:43:10;0.90;;;0.70;;
18435;SDS011;9346;52.006;4.720;2022-08-05T06:45:40;1.00;;;0.87;;
18435;SDS011;9346;52.006;4.720;2022-08-05T06:48:07;0.80;;;0.80;;
18435;SDS011;9346;52.006;4.720;2022-08-05T06:50:34;2.63;;;1.37;;
18435;SDS011;9346;52.006;4.720;2022-08-05T06:53:03;1.00;;;0.90;;
18435;SDS011;9346;52.006;4.720;2022-08-05T06:55:31;1.40;;;0.90;;
18435;SDS011;9346;52.006;4.720;2022-08-05T06:57:58;0.67;;;0.60;;
18435;SDS011;9346;52.006;4.720;2022-08-05T07:00:25;3.37;;;1.30;;
18435;SDS011;9346;52.006;4.720;2022-08-05T07:02:54;1.17;;;1.07;;
18435;SDS011;9346;52.006;4.720;2022-08-05T07:05:21;1.03;;;0.80;;
18435;SDS011;9346;52.006;4.720;2022-08-05T07:07:48;2.73;;;0.80;;
18435;SDS011;9346;52.006;4.720;2022-08-05T07:10:15;1.83;;;0.80;;
18435;SDS011;9346;52.006;4.720;2022-08-05T07:12:42;1.83;;;0.90;;
18435;SDS011;9346;52.006;4.720;2022-08-05T07:15:27;3.73;;;0.73;;
18435;SDS011;9346;52.006;4.720;2022-08-05T07:18:13;2.30;;;0.90;;
18435;SDS011;9346;52.006;4.720;2022-08-05T07:20:41;0.87;;;0.80;;
18435;SDS011;9346;52.006;4.720;2022-08-05T07:23:08;0.80;;;0.50;;
18435;SDS011;9346;52.006;4.720;2022-08-05T07:25:35;0.80;;;0.70;;
18435;SDS011;9346;52.006;4.720;2022-08-05T07:28:03;0.80;;;0.60;;
18435;SDS011;9346;52.006;4.720;2022-08-05T07:30:31;1.70;;;0.50;;
18435;SDS011;9346;52.006;4.720;2022-08-05T07:32:59;0.80;;;0.60;;
18435;SDS011;9346;52.006;4.720;2022-08-05T07:35:29;0.70;;;0.70;;
18435;SDS011;9346;52.006;4.720;2022-08-05T07:37:57;0.93;;;0.80;;
18435;SDS011;9346;52.006;4.720;2022-08-05T07:40:24;0.73;;;0.53;;
18435;SDS011;9346;52.006;4.720;2022-08-05T07:42:51;1.80;;;0.97;;
18435;SDS011;9346;52.006;4.720;2022-08-05T07:45:19;1.83;;;0.40;;
18435;SDS011;9346;52.006;4.720;2022-08-05T07:47:46;0.60;;;0.60;;
18435;SDS011;9346;52.006;4.720;2022-08-05T07:50:13;1.60;;;0.60;;
18435;SDS011;9346;52.006;4.720;2022-08-05T07:52:42;0.43;;;0.43;;
18435;SDS011;9346;52.006;4.720;2022-08-05T07:55:10;0.60;;;0.60;;
18435;SDS011;9346;52.006;4.720;2022-08-05T07:57:38;2.00;;;0.50;;
18435;SDS011;9346;52.006;4.720;2022-08-05T08:00:06;1.90;;;0.93;;
18435;SDS011;9346;52.006;4.720;2022-08-05T08:02:48;1.83;;;1.00;;
18435;SDS011;9346;52.006;4.720;2022-08-05T08:05:15;1.07;;;0.80;;
18435;SDS011;9346;52.006;4.720;2022-08-05T08:07:45;1.40;;;0.60;;
18435;SDS011;9346;52.006;4.720;2022-08-05T08:10:13;1.83;;;0.80;;
18435;SDS011;9346;52.006;4.720;2022-08-05T08:12:41;1.27;;;0.80;;
18435;SDS011;9346;52.006;4.720;2022-08-05T08:15:08;1.57;;;0.80;;
18435;SDS011;9346;52.006;4.720;2022-08-05T08:17:36;0.97;;;0.90;;
18435;SDS011;9346;52.006;4.720;2022-08-05T08:20:03;0.53;;;0.53;;
18435;SDS011;9346;52.006;4.720;2022-08-05T08:22:31;0.60;;;0.60;;
18435;SDS011;9346;52.006;4.720;2022-08-05T08:25:00;1.77;;;0.70;;
18435;SDS011;9346;52.006;4.720;2022-08-05T08:27:28;0.60;;;0.50;;
18435;SDS011;9346;52.006;4.720;2022-08-05T08:29:56;0.70;;;0.70;;
18435;SDS011;9346;52.006;4.720;2022-08-05T08:32:24;1.20;;;0.80;;
18435;SDS011;9346;52.006;4.720;2022-08-05T08:34:52;0.50;;;0.50;;
18435;SDS011;9346;52.006;4.720;2022-08-05T08:37:19;1.30;;;0.70;;
18435;SDS011;9346;52.006;4.720;2022-08-05T08:39:46;0.70;;;0.57;;
18435;SDS011;9346;52.006;4.720;2022-08-05T08:42:15;0.83;;;0.73;;
18435;SDS011;9346;52.006;4.720;2022-08-05T08:44:43;2.83;;;0.70;;
18435;SDS011;9346;52.006;4.720;2022-08-05T08:47:12;0.60;;;0.50;;
18435;SDS011;9346;52.006;4.720;2022-08-05T08:49:43;0.83;;;0.70;;
18435;SDS011;9346;52.006;4.720;2022-08-05T08:52:13;2.83;;;0.60;;
18435;SDS011;9346;52.006;4.720;2022-08-05T08:54:45;0.67;;;0.67;;
18435;SDS011;9346;52.006;4.720;2022-08-05T08:57:12;0.40;;;0.40;;
18435;SDS011;9346;52.006;4.720;2022-08-05T08:59:45;0.50;;;0.50;;
18435;SDS011;9346;52.006;4.720;2022-08-05T09:02:12;0.43;;;0.43;;
18435;SDS011;9346;52.006;4.720;2022-08-05T09:04:40;0.40;;;0.40;;
18435;SDS011;9346;52.006;4.720;2022-08-05T09:07:07;0.40;;;0.40;;
18435;SDS011;9346;52.006;4.720;2022-08-05T09:09:34;1.93;;;0.50;;
18435;SDS011;9346;52.006;4.720;2022-08-05T09:12:07;0.50;;;0.37;;
18435;SDS011;9346;52.006;4.720;2022-08-05T09:14:50;1.57;;;0.47;;
18435;SDS011;9346;52.006;4.720;2022-08-05T09:17:18;2.97;;;0.40;;
18435;SDS011;9346;52.006;4.720;2022-08-05T09:19:45;0.40;;;0.40;;
18435;SDS011;9346;52.006;4.720;2022-08-05T09:22:12;3.00;;;0.43;;
18435;SDS011;9346;52.006;4.720;2022-08-05T09:24:39;2.67;;;0.73;;
18435;SDS011;9346;52.006;4.720;2022-08-05T09:27:08;0.93;;;0.40;;
18435;SDS011;9346;52.006;4.720;2022-08-05T09:29:36;0.40;;;0.40;;
18435;SDS011;9346;52.006;4.720;2022-08-05T09:32:08;0.40;;;0.40;;
18435;SDS011;9346;52.006;4.720;2022-08-05T09:34:45;0.33;;;0.30;;
18435;SDS011;9346;52.006;4.720;2022-08-05T09:37:17;1.17;;;0.50;;
18435;SDS011;9346;52.006;4.720;2022-08-05T09:39:45;0.63;;;0.50;;
18435;SDS011;9346;52.006;4.720;2022-08-05T09:42:12;0.50;;;0.30;;
18435;SDS011;9346;52.006;4.720;2022-08-05T09:44:41;2.90;;;0.50;;
18435;SDS011;9346;52.006;4.720;2022-08-05T09:47:12;0.50;;;0.50;;
18435;SDS011;9346;52.006;4.720;2022-08-05T09:49:41;3.03;;;0.40;;
18435;SDS011;9346;52.006;4.720;2022-08-05T09:52:17;0.33;;;0.33;;
18435;SDS011;9346;52.006;4.720;2022-08-05T09:54:56;0.50;;;0.43;;
18435;SDS011;9346;52.006;4.720;2022-08-05T09:57:32;0.70;;;0.50;;
18435;SDS011;9346;52.006;4.720;2022-08-05T10:00:04;0.67;;;0.37;;
18435;SDS011;9346;52.006;4.720;2022-08-05T10:02:40;0.30;;;0.30;;
18435;SDS011;9346;52.006;4.720;2022-08-05T10:05:09;0.83;;;0.50;;
18435;SDS011;9346;52.006;4.720;2022-08-05T10:07:42;1.80;;;0.63;;
18435;SDS011;9346;52.006;4.720;2022-08-05T10:10:14;0.40;;;0.30;;
18435;SDS011;9346;52.006;4.720;2022-08-05T10:12:42;0.60;;;0.37;;
18435;SDS011;9346;52.006;4.720;2022-08-05T10:15:17;1.50;;;0.37;;
18435;SDS011;9346;52.006;4.720;2022-08-05T10:20:47;0.57;;;0.40;;
18435;SDS011;9346;52.006;4.720;2022-08-05T10:23:16;0.30;;;0.30;;
18435;SDS011;9346;52.006;4.720;2022-08-05T10:25:45;0.20;;;0.20;;
18435;SDS011;9346;52.006;4.720;2022-08-05T10:28:12;0.63;;;0.37;;
18435;SDS011;9346;52.006;4.720;2022-08-05T10:30:40;0.40;;;0.37;;
18435;SDS011;9346;52.006;4.720;2022-08-05T10:33:08;0.30;;;0.30;;
18435;SDS011;9346;52.006;4.720;2022-08-05T10:35:37;0.63;;;0.63;;
18435;SDS011;9346;52.006;4.720;2022-08-05T10:38:04;0.97;;;0.50;;
18435;SDS011;9346;52.006;4.720;2022-08-05T10:40:33;0.97;;;0.30;;
18435;SDS011;9346;52.006;4.720;2022-08-05T10:43:06;1.40;;;0.40;;
18435;SDS011;9346;52.006;4.720;2022-08-05T10:45:38;1.10;;;0.50;;
18435;SDS011;9346;52.006;4.720;2022-08-05T10:51:01;0.47;;;0.23;;
18435;SDS011;9346;52.006;4.720;2022-08-05T10:53:35;0.67;;;0.30;;
18435;SDS011;9346;52.006;4.720;2022-08-05T10:56:08;0.47;;;0.47;;
18435;SDS011;9346;52.006;4.720;2022-08-05T10:58:49;0.50;;;0.30;;
18435;SDS011;9346;52.006;4.720;2022-08-05T11:01:29;0.40;;;0.33;;
18435;SDS011;9346;52.006;4.720;2022-08-05T11:04:00;1.03;;;0.47;;
18435;SDS011;9346;52.006;4.720;2022-08-05T11:06:33;0.70;;;0.60;;
18435;SDS011;9346;52.006;4.720;2022-08-05T11:09:17;2.30;;;0.50;;
18435;SDS011;9346;52.006;4.720;2022-08-05T11:11:46;1.53;;;0.50;;
18435;SDS011;9346;52.006;4.720;2022-08-05T11:14:21;0.80;;;0.40;;
18435;SDS011;9346;52.006;4.720;2022-08-05T11:19:50;0.63;;;0.40;;
18435;SDS011;9346;52.006;4.720;2022-08-05T11:22:40;1.13;;;0.37;;
18435;SDS011;9346;52.006;4.720;2022-08-05T11:25:28;3.23;;;0.63;;
18435;SDS011;9346;52.006;4.720;2022-08-05T11:27:56;0.27;;;0.20;;
18435;SDS011;9346;52.006;4.720;2022-08-05T11:31:24;0.37;;;0.30;;
18435;SDS011;9346;52.006;4.720;2022-08-05T11:34:00;1.23;;;0.30;;
18435;SDS011;9346;52.006;4.720;2022-08-05T11:36:39;0.67;;;0.40;;
18435;SDS011;9346;52.006;4.720;2022-08-05T11:39:15;0.40;;;0.40;;
18435;SDS011;9346;52.006;4.720;2022-08-05T11:42:03;2.33;;;0.30;;
18435;SDS011;9346;52.006;4.720;2022-08-05T11:44:35;1.90;;;0.50;;
18435;SDS011;9346;52.006;4.720;2022-08-05T11:47:04;0.27;;;0.27;;
18435;SDS011;9346;52.006;4.720;2022-08-05T11:49:31;0.40;;;0.40;;
18435;SDS011;9346;52.006;4.720;2022-08-05T11:51:58;1.13;;;0.40;;
18435;SDS011;9346;52.006;4.720;2022-08-05T11:54:28;0.77;;;0.43;;
18435;SDS011;9346;52.006;4.720;2022-08-05T11:56:58;0.40;;;0.33;;
18435;SDS011;9346;52.006;4.720;2022-08-05T11:59:27;0.30;;;0.30;;
18435;SDS011;9346;52.006;4.720;2022-08-05T12:01:55;0.80;;;0.50;;
18435;SDS011;9346;52.006;4.720;2022-08-05T12:04:27;0.30;;;0.30;;
18435;SDS011;9346;52.006;4.720;2022-08-05T12:07:04;0.33;;;0.30;;
18435;SDS011;9346;52.006;4.720;2022-08-05T12:09:39;0.47;;;0.40;;
18435;SDS011;9346;52.006;4.720;2022-08-05T12:12:08;0.50;;;0.40;;
18435;SDS011;9346;52.006;4.720;2022-08-05T12:14:36;0.80;;;0.37;;
18435;SDS011;9346;52.006;4.720;2022-08-05T12:17:08;0.43;;;0.30;;
18435;SDS011;9346;52.006;4.720;2022-08-05T12:19:40;0.30;;;0.30;;
18435;SDS011;9346;52.006;4.720;2022-08-05T12:22:07;0.60;;;0.60;;
18435;SDS011;9346;52.006;4.720;2022-08-05T12:27:25;0.30;;;0.30;;
18435;SDS011;9346;52.006;4.720;2022-08-05T12:30:02;1.50;;;0.50;;
18435;SDS011;9346;52.006;4.720;2022-08-05T12:32:31;0.30;;;0.30;;
18435;SDS011;9346;52.006;4.720;2022-08-05T12:35:03;0.50;;;0.50;;
18435;SDS011;9346;52.006;4.720;2022-08-05T12:37:33;0.93;;;0.30;;
18435;SDS011;9346;52.006;4.720;2022-08-05T12:40:08;0.83;;;0.60;;
18435;SDS011;9346;52.006;4.720;2022-08-05T12:42:37;0.37;;;0.37;;
18435;SDS011;9346;52.006;4.720;2022-08-05T12:45:06;0.20;;;0.20;;
18435;SDS011;9346;52.006;4.720;2022-08-05T12:47:34;0.60;;;0.30;;
18435;SDS011;9346;52.006;4.720;2022-08-05T12:50:11;1.30;;;0.30;;
18435;SDS011;9346;52.006;4.720;2022-08-05T12:52:39;0.70;;;0.70;;
18435;SDS011;9346;52.006;4.720;2022-08-05T12:55:17;1.60;;;0.40;;
18435;SDS011;9346;52.006;4.720;2022-08-05T12:57:47;0.20;;;0.20;;
18435;SDS011;9346;52.006;4.720;2022-08-05T13:00:18;0.83;;;0.30;;
18435;SDS011;9346;52.006;4.720;2022-08-05T13:02:46;1.80;;;0.30;;
18435;SDS011;9346;52.006;4.720;2022-08-05T13:05:13;0.53;;;0.50;;
18435;SDS011;9346;52.006;4.720;2022-08-05T13:07:41;0.50;;;0.50;;
18435;SDS011;9346;52.006;4.720;2022-08-05T13:10:11;1.33;;;0.43;;
18435;SDS011;9346;52.006;4.720;2022-08-05T13:12:42;0.30;;;0.30;;
18435;SDS011;9346;52.006;4.720;2022-08-05T13:15:10;0.43;;;0.40;;
18435;SDS011;9346;52.006;4.720;2022-08-05T13:17:39;0.30;;;0.30;;
18435;SDS011;9346;52.006;4.720;2022-08-05T13:20:07;0.67;;;0.50;;
18435;SDS011;9346;52.006;4.720;2022-08-05T13:22:36;0.40;;;0.40;;
18435;SDS011;9346;52.006;4.720;2022-08-05T13:25:07;0.40;;;0.40;;
18435;SDS011;9346;52.006;4.720;2022-08-05T13:27:36;0.63;;;0.23;;
18435;SDS011;9346;52.006;4.720;2022-08-05T13:30:08;0.90;;;0.27;;
18435;SDS011;9346;52.006;4.720;2022-08-05T13:32:37;0.60;;;0.40;;
18435;SDS011;9346;52.006;4.720;2022-08-05T13:35:05;0.30;;;0.30;;
18435;SDS011;9346;52.006;4.720;2022-08-05T13:40:20;0.30;;;0.30;;
18435;SDS011;9346;52.006;4.720;2022-08-05T13:42:46;1.30;;;0.50;;
18435;SDS011;9346;52.006;4.720;2022-08-05T13:45:15;0.30;;;0.30;;
18435;SDS011;9346;52.006;4.720;2022-08-05T13:47:43;0.20;;;0.20;;
18435;SDS011;9346;52.006;4.720;2022-08-05T13:50:09;0.33;;;0.33;;
18435;SDS011;9346;52.006;4.720;2022-08-05T13:52:37;0.30;;;0.30;;
18435;SDS011;9346;52.006;4.720;2022-08-05T13:55:04;0.53;;;0.30;;
18435;SDS011;9346;52.006;4.720;2022-08-05T13:57:31;0.33;;;0.33;;
18435;SDS011;9346;52.006;4.720;2022-08-05T13:59:58;0.87;;;0.47;;
18435;SDS011;9346;52.006;4.720;2022-08-05T14:02:28;2.50;;;0.60;;
18435;SDS011;9346;52.006;4.720;2022-08-05T14:04:55;0.50;;;0.50;;
18435;SDS011;9346;52.006;4.720;2022-08-05T14:07:36;0.60;;;0.60;;
18435;SDS011;9346;52.006;4.720;2022-08-05T14:10:05;0.47;;;0.40;;
18435;SDS011;9346;52.006;4.720;2022-08-05T14:12:32;0.77;;;0.40;;
18435;SDS011;9346;52.006;4.720;2022-08-05T14:15:02;3.20;;;0.50;;
18435;SDS011;9346;52.006;4.720;2022-08-05T14:17:31;1.43;;;0.57;;
18435;SDS011;9346;52.006;4.720;2022-08-05T14:19:57;0.83;;;0.60;;
18435;SDS011;9346;52.006;4.720;2022-08-05T14:22:24;0.40;;;0.40;;
18435;SDS011;9346;52.006;4.720;2022-08-05T14:24:51;0.50;;;0.40;;
18435;SDS011;9346;52.006;4.720;2022-08-05T14:27:19;1.03;;;0.40;;
18435;SDS011;9346;52.006;4.720;2022-08-05T14:29:46;0.40;;;0.40;;
18435;SDS011;9346;52.006;4.720;2022-08-05T14:32:12;0.70;;;0.70;;
18435;SDS011;9346;52.006;4.720;2022-08-05T14:34:41;1.50;;;0.73;;
18435;SDS011;9346;52.006;4.720;2022-08-05T14:37:08;1.33;;;0.50;;
18435;SDS011;9346;52.006;4.720;2022-08-05T14:39:34;1.50;;;0.77;;
18435;SDS011;9346;52.006;4.720;2022-08-05T14:42:01;0.63;;;0.40;;
18435;SDS011;9346;52.006;4.720;2022-08-05T14:44:29;0.47;;;0.47;;
18435;SDS011;9346;52.006;4.720;2022-08-05T14:46:56;0.50;;;0.50;;
18435;SDS011;9346;52.006;4.720;2022-08-05T14:49:23;1.10;;;1.00;;
18435;SDS011;9346;52.006;4.720;2022-08-05T14:51:51;1.13;;;0.57;;
18435;SDS011;9346;52.006;4.720;2022-08-05T14:54:18;0.80;;;0.63;;
18435;SDS011;9346;52.006;4.720;2022-08-05T14:56:45;1.07;;;0.60;;
18435;SDS011;9346;52.006;4.720;2022-08-05T14:59:12;0.87;;;0.67;;
18435;SDS011;9346;52.006;4.720;2022-08-05T15:01:40;2.00;;;0.50;;
18435;SDS011;9346;52.006;4.720;2022-08-05T15:04:07;0.60;;;0.50;;
18435;SDS011;9346;52.006;4.720;2022-08-05T15:06:35;1.37;;;0.70;;
18435;SDS011;9346;52.006;4.720;2022-08-05T15:09:04;0.80;;;0.40;;
18435;SDS011;9346;52.006;4.720;2022-08-05T15:11:31;0.57;;;0.57;;
18435;SDS011;9346;52.006;4.720;2022-08-05T15:13:59;0.90;;;0.30;;
18435;SDS011;9346;52.006;4.720;2022-08-05T15:16:26;2.00;;;0.70;;
18435;SDS011;9346;52.006;4.720;2022-08-05T15:18:53;0.83;;;0.70;;
18435;SDS011;9346;52.006;4.720;2022-08-05T15:21:23;0.40;;;0.40;;
18435;SDS011;9346;52.006;4.720;2022-08-05T15:23:49;0.50;;;0.50;;
18435;SDS011;9346;52.006;4.720;2022-08-05T15:26:18;1.80;;;0.50;;
18435;SDS011;9346;52.006;4.720;2022-08-05T15:28:45;0.93;;;0.63;;
18435;SDS011;9346;52.006;4.720;2022-08-05T15:31:12;0.67;;;0.57;;
18435;SDS011;9346;52.006;4.720;2022-08-05T15:33:41;1.73;;;0.50;;